Time;durP1;ratioP1;P1;durP2;ratioP2;P2;SDS_P1;SDS_P2;PMS_P1;PMS_P2;Temp;Humidity;BMP_temperature;BMP_pressure;BME280_temperature;BME280_humidity;BME280_pressure;Samples;Min_cycle;Max_cycle;Signal;HPM_P1;HPM_P2
2021/01/19 00:01:52;;;;;;;27.30;17.80;;;;;;;4.34;100.00;101175.59;5011407;28;20037;-90
2021/01/19 00:04:17;;;;;;;28.10;19.75;;;;;;;4.35;100.00;101164.03;5047295;28;20033;-90
2021/01/19 00:06:43;;;;;;;28.95;18.88;;;;;;;4.34;100.00;101155.19;5046400;28;20041;-90
2021/01/19 00:09:11;;;;;;;31.10;20.23;;;;;;;4.35;100.00;101164.88;5047859;28;20037;-90
2021/01/19 00:11:37;;;;;;;25.98;18.65;;;;;;;4.35;100.00;101156.06;5029373;28;20038;-89
2021/01/19 00:14:05;;;;;;;24.45;17.00;;;;;;;4.35;100.00;101159.56;5031326;28;20037;-92
2021/01/19 00:16:31;;;;;;;25.65;17.85;;;;;;;4.37;100.00;101151.44;5029305;28;20052;-90
2021/01/19 00:18:57;;;;;;;27.23;17.00;;;;;;;4.38;100.00;101137.22;5029283;28;20125;-90
2021/01/19 00:21:23;;;;;;;24.50;17.60;;;;;;;4.39;100.00;101150.38;5029273;28;20526;-90
2021/01/19 00:23:49;;;;;;;26.38;17.52;;;;;;;4.41;100.00;101123.69;5030205;28;20046;-91
2021/01/19 00:26:14;;;;;;;26.70;18.65;;;;;;;4.41;100.00;101135.19;5030369;28;20045;-90
2021/01/19 00:28:40;;;;;;;29.45;16.95;;;;;;;4.41;100.00;101137.00;5044135;28;20562;-90
2021/01/19 00:31:07;;;;;;;26.75;18.25;;;;;;;4.42;100.00;101138.66;5036506;28;20231;-91
2021/01/19 00:33:32;;;;;;;26.75;17.65;;;;;;;4.43;100.00;101127.06;5046355;28;20111;-91
2021/01/19 00:35:58;;;;;;;29.17;17.85;;;;;;;4.44;100.00;101104.88;5048448;28;20276;-90
2021/01/19 00:38:23;;;;;;;27.73;16.63;;;;;;;4.43;100.00;101117.31;5031730;28;20045;-90
2021/01/19 00:40:49;;;;;;;26.25;18.45;;;;;;;4.46;100.00;101106.44;5039405;28;20051;-90
2021/01/19 00:43:16;;;;;;;28.75;19.38;;;;;;;4.49;100.00;101097.41;5025969;28;20128;-91
2021/01/19 00:45:41;;;;;;;29.05;19.42;;;;;;;4.49;100.00;101108.88;5024465;28;20458;-91
2021/01/19 00:48:08;;;;;;;30.10;19.77;;;;;;;4.50;100.00;101096.41;5028263;28;20132;-91
2021/01/19 00:50:34;;;;;;;29.63;19.10;;;;;;;4.50;100.00;101083.13;5046040;28;20077;-90
2021/01/19 00:52:59;;;;;;;29.27;20.52;;;;;;;4.50;100.00;101083.13;5029963;28;20041;-91
2021/01/19 00:55:31;;;;;;;32.40;22.55;;;;;;;4.51;100.00;101077.69;5045071;28;20053;-92
2021/01/19 00:57:56;;;;;;;27.60;17.40;;;;;;;4.49;100.00;101073.47;5030150;28;20048;-90
2021/01/19 01:00:22;;;;;;;30.58;20.48;;;;;;;4.50;100.00;101054.75;5027515;28;20394;-90
2021/01/19 01:02:48;;;;;;;24.05;16.75;;;;;;;4.49;100.00;101055.72;5028174;28;20041;-91
2021/01/19 01:05:15;;;;;;;27.02;16.85;;;;;;;4.51;100.00;101058.25;5023991;28;20140;-89
2021/01/19 01:07:41;;;;;;;28.92;17.30;;;;;;;4.50;100.00;101057.41;5030023;28;20037;-90
2021/01/19 01:10:12;;;;;;;29.83;18.70;;;;;;;4.51;100.00;101047.59;5043702;28;20037;-89
2021/01/19 01:12:45;;;;;;;28.90;16.17;;;;;;;4.49;100.00;101053.06;5027120;28;20199;-90
2021/01/19 01:15:14;;;;;;;29.15;15.23;;;;;;;4.49;100.00;101041.59;5028026;28;20067;-89
2021/01/19 01:17:40;;;;;;;;;;;;;;;4.48;100.00;101043.38;5030232;28;20049;-90
2021/01/19 01:20:06;;;;;;;23.27;15.10;;;;;;;4.42;100.00;101027.91;5034718;28;19917;-91
2021/01/19 01:22:44;;;;;;;21.95;14.55;;;;;;;4.43;100.00;101028.75;5029253;28;20049;-90
2021/01/19 01:25:11;;;;;;;16.95;11.95;;;;;;;4.43;100.00;101018.13;5033875;28;20110;-90
2021/01/19 01:27:37;;;;;;;19.77;11.50;;;;;;;4.43;100.00;101023.44;5031476;28;20049;-91
2021/01/19 01:30:04;;;;;;;22.15;11.52;;;;;;;4.46;100.00;101023.19;5021529;28;20127;-92
2021/01/19 01:32:30;;;;;;;24.70;11.45;;;;;;;4.47;100.00;101014.28;5030578;28;20174;-90
2021/01/19 01:34:55;;;;;;;20.58;10.88;;;;;;;4.46;100.00;101012.56;5027959;28;20566;-89
2021/01/19 01:37:21;;;;;;;16.48;10.07;;;;;;;4.44;100.00;101003.88;5043893;28;20486;-89
2021/01/19 01:39:46;;;;;;;20.08;9.40;;;;;;;4.42;100.00;100995.19;5033574;28;20366;-90
2021/01/19 01:42:21;;;;;;;18.67;7.03;;;;;;;4.42;100.00;100995.19;5028622;28;20551;-89
2021/01/19 01:44:48;;;;;;;20.15;8.73;;;;;;;4.43;100.00;100991.53;5027547;28;20042;-90
2021/01/19 01:47:22;;;;;;;18.92;7.68;;;;;;;4.43;100.00;100986.22;5037746;28;20123;-89
2021/01/19 01:49:49;;;;;;;14.73;7.60;;;;;;;4.43;100.00;100978.25;5031436;28;20445;-91
2021/01/19 01:52:16;;;;;;;16.45;7.93;;;;;;;4.42;100.00;100973.91;5032852;28;20133;-90
2021/01/19 01:54:41;;;;;;;13.50;6.38;;;;;;;4.42;100.00;100968.59;5034136;28;20065;-89
2021/01/19 01:57:08;;;;;;;16.20;6.78;;;;;;;4.42;100.00;100963.28;5037720;28;20095;-91
2021/01/19 01:59:34;;;;;;;15.57;6.05;;;;;;;4.39;100.00;100947.59;5024643;28;20057;-90
2021/01/19 02:02:10;;;;;;;19.13;5.65;;;;;;;4.40;100.00;100951.94;5018079;28;20046;-90
2021/01/19 02:04:37;;;;;;;15.45;5.88;;;;;;;4.40;100.00;100959.91;5022220;28;20042;-90
2021/01/19 02:07:06;;;;;;;12.75;5.82;;;;;;;4.40;100.00;100950.13;5026312;28;20406;-90
2021/01/19 02:09:38;;;;;;;16.55;6.07;;;;;;;4.39;100.00;100921.00;5029020;28;20037;-89
2021/01/19 02:12:05;;;;;;;16.33;5.88;;;;;;;4.40;100.00;100922.69;5033685;28;20036;-89
2021/01/19 02:14:40;;;;;;;10.52;4.68;;;;;;;4.37;100.00;100907.00;5052269;28;20111;-91
2021/01/19 02:17:23;;;;;;;12.10;5.50;;;;;;;4.38;100.00;100920.19;5008596;28;20430;-90
2021/01/19 02:20:08;;;;;;;12.85;5.13;;;;;;;4.37;100.00;100904.34;5030168;28;20045;-90
2021/01/19 02:23:04;;;;;;;10.88;4.20;;;;;;;4.36;100.00;100895.53;5025144;28;20120;-90
2021/01/19 02:25:50;;;;;;;9.20;3.90;;;;;;;4.33;100.00;100889.63;5024265;28;20045;-90
2021/01/19 02:28:24;;;;;;;10.50;4.05;;;;;;;4.33;100.00;100868.38;5026486;28;20049;-90
2021/01/19 02:31:05;;;;;;;14.13;4.05;;;;;;;4.33;100.00;100863.91;5025570;28;20034;-89
2021/01/19 02:33:49;;;;;;;11.80;4.03;;;;;;;4.35;100.00;100872.59;5017469;28;20045;-90
2021/01/19 02:36:21;;;;;;;12.48;4.70;;;;;;;4.35;100.00;100866.44;5028366;28;20096;-90
2021/01/19 02:39:06;;;;;;;11.75;4.30;;;;;;;4.33;100.00;100855.09;5027489;28;20084;-90
2021/01/19 02:41:39;;;;;;;13.38;4.47;;;;;;;4.32;100.00;100850.75;5027135;28;20104;-91
2021/01/19 02:44:20;;;;;;;10.73;3.13;;;;;;;4.32;99.33;100837.47;5030696;28;20048;-91
2021/01/19 02:46:54;;;;;;;10.23;4.10;;;;;;;4.33;99.23;100831.19;5028827;28;20426;-91
2021/01/19 02:49:33;;;;;;;8.30;3.25;;;;;;;4.32;98.69;100845.44;5026991;28;20049;-90
2021/01/19 02:52:00;;;;;;;7.95;3.33;;;;;;;4.33;97.97;100816.06;5031272;28;20029;-89
2021/01/19 02:54:28;;;;;;;12.68;3.58;;;;;;;4.34;97.83;100825.72;5014501;28;20041;-90
2021/01/19 02:56:59;;;;;;;11.52;4.13;;;;;;;4.34;97.27;100815.09;5033180;28;20049;-91
2021/01/19 02:59:49;;;;;;;10.80;3.95;;;;;;;4.34;96.68;100808.94;5047118;28;20072;-91
2021/01/19 03:02:21;;;;;;;8.93;2.85;;;;;;;4.33;96.11;100786.84;5030753;28;20033;-90
2021/01/19 03:05:17;;;;;;;12.20;3.47;;;;;;;4.36;96.26;100785.75;5031361;28;20038;-90
2021/01/19 03:07:48;;;;;;;7.28;2.85;;;;;;;4.35;95.35;100776.94;5044414;28;20194;-90
2021/01/19 03:10:17;;;;;;;10.23;2.28;;;;;;;4.34;95.21;100748.66;5034675;28;20033;-90
2021/01/19 03:12:49;;;;;;;11.25;3.78;;;;;;;4.35;95.41;100766.31;5035322;28;20030;-89
2021/01/19 03:15:17;;;;;;;8.75;3.45;;;;;;;4.34;95.21;100743.34;5031968;28;20037;-90
2021/01/19 03:17:52;;;;;;;9.43;3.30;;;;;;;4.36;95.55;100759.19;5028714;28;20045;-91
2021/01/19 03:20:19;;;;;;;9.30;2.40;;;;;;;4.36;95.07;100743.25;5028732;28;20034;-91
2021/01/19 03:22:50;;;;;;;9.95;3.13;;;;;;;4.36;95.99;100740.59;5037328;28;20048;-90
2021/01/19 03:25:43;;;;;;;11.82;2.85;;;;;;;4.34;96.17;100737.22;5016780;28;20379;-91
2021/01/19 03:28:16;;;;;;;9.73;3.00;;;;;;;4.30;96.44;100732.16;5023927;28;20091;-90
2021/01/19 03:30:47;;;;;;;10.07;3.65;;;;;;;4.29;97.06;100730.47;5026471;28;20125;-89
2021/01/19 03:33:37;;;;;;;10.80;3.20;;;;;;;4.28;97.25;100718.13;5031003;28;20042;-91
2021/01/19 03:36:09;;;;;;;7.85;3.33;;;;;;;4.28;97.17;100706.66;5026508;28;20057;-90
2021/01/19 03:38:58;;;;;;;9.38;3.60;;;;;;;4.25;97.59;100696.31;5025244;28;20057;-90
2021/01/19 03:41:40;;;;;;;13.63;5.35;;;;;;;4.23;97.98;100696.44;5035547;28;20389;-90
2021/01/19 03:44:17;;;;;;;11.50;3.30;;;;;;;4.18;98.11;100692.47;5032691;28;20413;-90
2021/01/19 03:46:50;;;;;;;13.00;3.95;;;;;;;4.17;98.96;100693.41;5031764;28;20140;-88
2021/01/19 03:49:17;;;;;;;14.02;3.78;;;;;;;4.13;99.10;100684.88;5031628;28;20033;-91
2021/01/19 03:51:54;;;;;;;12.70;3.35;;;;;;;4.13;99.98;100682.22;5026641;28;20052;-89
2021/01/19 03:54:19;;;;;;;14.00;4.47;;;;;;;4.10;100.00;100674.50;5018880;28;20632;-91
2021/01/19 03:57:17;;;;;;;10.35;3.80;;;;;;;4.05;100.00;100668.72;5034111;28;20068;-90
2021/01/19 04:00:12;;;;;;;9.23;2.90;;;;;;;4.03;100.00;100668.00;5048504;28;20049;-90
2021/01/19 04:02:59;;;;;;;10.93;3.80;;;;;;;4.00;100.00;100670.88;5032552;28;20132;-90
2021/01/19 04:05:24;;;;;;;12.80;3.88;;;;;;;3.93;100.00;100656.44;5028751;28;20485;-90
2021/01/19 04:07:52;;;;;;;8.38;2.97;;;;;;;3.89;100.00;100653.19;5031676;28;20045;-92
2021/01/19 04:10:24;;;;;;;9.95;3.50;;;;;;;3.88;100.00;100637.38;5031238;28;20486;-89
2021/01/19 04:12:49;;;;;;;9.50;3.50;;;;;;;3.83;100.00;100635.97;5030831;28;20050;-90
2021/01/19 04:15:21;;;;;;;11.15;5.03;;;;;;;3.84;100.00;100626.19;5031852;28;20048;-90
2021/01/19 04:17:52;;;;;;;11.68;4.07;;;;;;;3.80;100.00;100644.16;5031765;28;20713;-90
2021/01/19 04:20:17;;;;;;;10.13;3.78;;;;;;;3.78;100.00;100619.56;5030631;28;20057;-89
2021/01/19 04:22:44;;;;;;;12.50;4.32;;;;;;;3.76;100.00;100596.75;5032420;28;20048;-91
2021/01/19 04:25:11;;;;;;;15.45;4.53;;;;;;;3.72;100.00;100612.09;5031743;28;20041;-91
2021/01/19 04:27:36;;;;;;;13.18;5.10;;;;;;;3.72;100.00;100598.81;5024738;28;20705;-91
2021/01/19 04:30:08;;;;;;;9.55;4.05;;;;;;;3.67;100.00;100590.38;5036097;28;20161;-89
2021/01/19 04:32:37;;;;;;;12.13;4.72;;;;;;;3.67;100.00;100586.91;5028776;28;20037;-91
2021/01/19 04:35:16;;;;;;;14.68;4.55;;;;;;;3.65;100.00;100579.03;5032394;28;20033;-91
2021/01/19 04:37:49;;;;;;;11.05;4.88;;;;;;;3.61;100.00;100569.66;5030601;28;20116;-91
2021/01/19 04:40:18;;;;;;;12.60;4.93;;;;;;;3.61;100.00;100581.09;5036592;28;20032;-90
2021/01/19 04:42:44;;;;;;;17.15;5.07;;;;;;;3.59;100.00;100560.97;5034436;28;20132;-91
2021/01/19 04:45:10;;;;;;;11.43;5.07;;;;;;;3.62;100.00;100544.78;5038937;28;20116;-91
2021/01/19 04:47:42;;;;;;;10.52;4.93;;;;;;;3.60;100.00;100554.72;5031558;28;20049;-90
2021/01/19 04:50:12;;;;;;;14.70;5.03;;;;;;;3.58;100.00;100549.53;5043090;28;20017;-89
2021/01/19 04:56:14;;;;;;;17.80;5.63;;;;;;;3.53;100.00;100530.47;5033336;28;20049;-90
2021/01/19 04:59:10;;;;;;;15.82;6.03;;;;;;;3.50;100.00;100513.97;5031820;28;20065;-90
2021/01/19 05:01:35;;;;;;;15.05;5.30;;;;;;;3.49;100.00;100513.13;5032028;28;20034;-90
2021/01/19 05:04:42;;;;;;;13.73;6.65;;;;;;;3.48;100.00;100500.84;5028446;28;20038;-91
2021/01/19 05:07:33;;;;;;;12.32;6.07;;;;;;;3.46;100.00;100492.16;5030094;28;20037;-91
2021/01/19 05:10:12;;;;;;;14.65;6.20;;;;;;;3.43;100.00;100492.41;5023605;28;20058;-91
2021/01/19 05:12:45;;;;;;;17.63;7.05;;;;;;;3.40;100.00;100495.31;5026852;28;20042;-90
2021/01/19 05:15:25;;;;;;;15.35;7.18;;;;;;;3.41;100.00;100482.91;5033262;28;20017;-91
2021/01/19 05:17:56;;;;;;;14.93;6.57;;;;;;;3.39;100.00;100470.59;5030064;28;20049;-91
2021/01/19 05:20:34;;;;;;;14.38;7.18;;;;;;;3.41;100.00;100469.63;5043679;28;20047;-91
2021/01/19 05:23:27;;;;;;;14.93;6.40;;;;;;;3.41;100.00;100469.63;5025074;28;20044;-92
2021/01/19 05:25:55;;;;;;;13.60;7.07;;;;;;;3.38;100.00;100463.59;5047805;28;20083;-91
2021/01/19 05:29:05;;;;;;;15.30;6.82;;;;;;;3.37;100.00;100455.78;5028535;28;20044;-91
2021/01/19 05:32:02;;;;;;;18.05;7.20;;;;;;;3.35;100.00;100453.25;5023531;28;20064;-91
2021/01/19 05:34:35;;;;;;;14.07;8.63;;;;;;;3.33;100.00;100446.38;5019665;28;20029;-90
2021/01/19 05:40:28;;;;;;;16.85;10.02;;;;;;;3.34;100.00;100432.16;5035670;28;20048;-91
2021/01/19 05:42:55;;;;;;;15.65;9.15;;;;;;;3.31;100.00;100421.78;5015550;28;20486;-90
2021/01/19 05:49:00;;;;;;;21.08;8.98;;;;;;;3.30;100.00;100407.69;5032646;28;20052;-91
2021/01/19 05:51:30;;;;;;;16.95;8.60;;;;;;;3.29;100.00;100395.41;5048819;28;20148;-90
2021/01/19 05:53:59;;;;;;;14.02;9.00;;;;;;;3.32;100.00;100375.75;5012650;28;20490;-92
2021/01/19 05:56:27;;;;;;;17.73;10.37;;;;;;;3.33;100.00;100380.06;5023280;28;20041;-91
2021/01/19 05:58:52;;;;;;;15.35;9.75;;;;;;;3.35;100.00;100359.56;5011082;28;20064;-90
2021/01/19 06:01:24;;;;;;;15.38;9.32;;;;;;;3.35;100.00;100371.03;5026113;28;20495;-91
2021/01/19 06:03:56;;;;;;;18.27;11.05;;;;;;;3.38;100.00;100362.81;5004220;28;20052;-91
2021/01/19 06:06:24;;;;;;;13.57;8.98;;;;;;;3.41;100.00;100371.47;5027848;28;20073;-91
2021/01/19 06:08:57;;;;;;;18.52;11.65;;;;;;;3.42;100.00;100362.53;5026691;28;20049;-90
2021/01/19 06:14:49;;;;;;;16.40;8.85;;;;;;;3.44;100.00;100369.41;5038647;28;20150;-91
2021/01/19 06:17:22;;;;;;;14.70;7.75;;;;;;;3.46;100.00;100370.13;5032707;28;20533;-90
2021/01/19 06:20:05;;;;;;;18.98;9.57;;;;;;;3.47;100.00;100363.84;5033412;28;20371;-92
2021/01/19 06:22:48;;;;;;;11.95;8.13;;;;;;;3.49;100.00;100353.13;5043055;28;20030;-91
2021/01/19 06:25:15;;;;;;;14.18;9.75;;;;;;;3.50;100.00;100346.81;5031022;28;20482;-91
2021/01/19 06:27:40;;;;;;;16.98;7.88;;;;;;;3.50;100.00;100333.56;5028290;28;20152;-91
2021/01/19 06:30:08;;;;;;;16.15;9.98;;;;;;;3.53;100.00;100317.38;5033170;28;20427;-92
2021/01/19 06:32:36;;;;;;;15.68;9.43;;;;;;;3.53;100.00;100315.56;5030427;28;20049;-91
2021/01/19 06:35:13;;;;;;;18.10;9.52;;;;;;;3.56;100.00;100317.13;5028358;28;20038;-91
2021/01/19 06:37:40;;;;;;;15.82;9.05;;;;;;;3.58;100.00;100301.91;5015166;28;20125;-91
2021/01/19 06:40:24;;;;;;;15.73;9.00;;;;;;;3.58;100.00;100310.72;5032033;28;20049;-90
2021/01/19 06:43:13;;;;;;;11.07;7.75;;;;;;;3.61;100.00;100294.53;5035596;28;20520;-91
2021/01/19 06:45:41;;;;;;;13.77;8.10;;;;;;;3.62;100.00;100300.66;5061135;28;20021;-90
2021/01/19 06:48:07;;;;;;;15.02;9.27;;;;;;;3.63;100.00;100299.72;5043311;28;20083;-90
2021/01/19 06:50:38;;;;;;;11.60;7.53;;;;;;;3.67;100.00;100282.56;5042685;28;20805;-92
2021/01/19 06:53:46;;;;;;;14.85;7.15;;;;;;;3.68;100.00;100268.31;5041768;28;20045;-91
2021/01/19 06:56:14;;;;;;;11.90;8.35;;;;;;;3.70;100.00;100269.00;5013847;28;20048;-91
2021/01/19 06:58:45;;;;;;;16.77;9.27;;;;;;;3.72;100.00;100264.44;5026482;28;20045;-91
2021/01/19 07:01:18;;;;;;;14.80;7.28;;;;;;;3.75;100.00;100256.19;5027301;28;20121;-91
2021/01/19 07:04:31;;;;;;;12.38;7.35;;;;;;;3.78;100.00;100247.13;5032826;28;20038;-92
2021/01/19 07:07:06;;;;;;;10.75;6.32;;;;;;;3.81;100.00;100231.78;5009549;28;20547;-91
2021/01/19 07:10:00;;;;;;;11.68;7.28;;;;;;;3.82;100.00;100228.13;5016588;28;20068;-93
2021/01/19 07:12:46;;;;;;;11.07;7.93;;;;;;;3.86;100.00;100227.88;5000158;28;20072;-90
2021/01/19 07:16:01;;;;;;;9.70;8.10;;;;;;;3.88;100.00;100207.34;5036971;28;20044;-90
2021/01/19 07:19:04;;;;;;;10.60;6.72;;;;;;;3.88;100.00;100202.03;5012625;28;20077;-91
2021/01/19 07:21:42;;;;;;;12.40;8.38;;;;;;;3.89;100.00;100196.59;5020323;28;20041;-91
2021/01/19 07:24:30;;;;;;;11.82;7.40;;;;;;;3.92;100.00;100190.19;5019135;28;20158;-93
2021/01/19 07:26:59;;;;;;;11.95;8.00;;;;;;;3.93;100.00;100181.22;5034511;28;20041;-92
2021/01/19 07:29:39;;;;;;;12.10;7.07;;;;;;;3.96;100.00;100171.16;5027304;28;20033;-91
2021/01/19 07:32:35;;;;;;;11.00;6.13;;;;;;;3.98;100.00;100179.00;5021421;28;20037;-91
2021/01/19 07:35:14;;;;;;;10.75;7.85;;;;;;;3.99;100.00;100172.72;4999641;28;20072;-91
2021/01/19 07:37:40;;;;;;;10.85;5.85;;;;;;;4.00;100.00;100153.13;5023897;28;20092;-92
2021/01/19 07:40:26;;;;;;;8.35;5.90;;;;;;;4.05;100.00;100153.56;5030175;28;20038;-92
2021/01/19 07:42:53;;;;;;;8.35;6.03;;;;;;;4.06;100.00;100147.31;5020119;28;20041;-92
2021/01/19 07:45:38;;;;;;;12.40;6.38;;;;;;;4.09;100.00;100141.72;5034488;28;20048;-91
2021/01/19 07:48:06;;;;;;;8.73;5.60;;;;;;;4.11;100.00;100131.78;5003225;28;20037;-92
2021/01/19 07:50:41;;;;;;;9.95;6.25;;;;;;;4.14;100.00;100146.59;5035133;28;20044;-91
2021/01/19 07:53:08;;;;;;;9.52;6.22;;;;;;;4.18;100.00;100124.94;5021791;28;20041;-91
2021/01/19 07:55:42;;;;;;;9.32;5.45;;;;;;;4.20;100.00;100123.00;5013494;28;20131;-91
2021/01/19 07:58:14;;;;;;;9.43;6.22;;;;;;;4.21;100.00;100116.69;5037783;28;20379;-93
2021/01/19 08:00:43;;;;;;;11.25;6.55;;;;;;;4.23;100.00;100119.19;5023962;28;20045;-93
2021/01/19 08:03:12;;;;;;;8.05;4.68;;;;;;;4.23;100.00;100095.28;5023804;28;20033;-92
2021/01/19 08:05:38;;;;;;;11.23;5.85;;;;;;;4.24;100.00;100116.41;5040532;28;20072;-92
2021/01/19 08:08:17;;;;;;;8.55;5.70;;;;;;;4.27;100.00;100100.19;5037921;28;20056;-92
2021/01/19 08:11:03;;;;;;;7.88;5.30;;;;;;;4.28;100.00;100093.91;5041801;28;20042;-90
2021/01/19 08:13:29;;;;;;;7.20;5.47;;;;;;;4.28;100.00;100083.28;5030433;28;20045;-91
2021/01/19 08:16:04;;;;;;;8.27;5.28;;;;;;;4.32;100.00;100099.78;5018254;28;20048;-92
2021/01/19 08:18:49;;;;;;;6.80;5.40;;;;;;;4.33;100.00;100079.38;5029687;28;20037;-92
2021/01/19 08:21:23;;;;;;;8.75;5.03;;;;;;;4.34;100.00;100071.25;5031139;28;20117;-91
2021/01/19 08:23:48;;;;;;;5.93;4.75;;;;;;;4.35;100.00;100086.22;5025111;28;20052;-93
2021/01/19 08:26:13;;;;;;;5.65;3.85;;;;;;;4.38;100.00;100071.81;5035837;28;20037;-92
2021/01/19 08:28:39;;;;;;;5.43;4.20;;;;;;;4.41;100.00;100061.75;5046097;28;20068;-91
2021/01/19 08:31:15;;;;;;;6.38;4.55;;;;;;;4.43;100.00;100061.59;5030665;28;20048;-91
2021/01/19 08:33:41;;;;;;;6.38;4.38;;;;;;;4.44;100.00;100056.16;5027674;28;20505;-91
2021/01/19 08:36:10;;;;;;;4.40;2.95;;;;;;;4.45;100.00;100055.16;5030350;28;20041;-92
2021/01/19 08:38:38;;;;;;;6.72;4.47;;;;;;;4.46;100.00;100055.97;5033342;28;20046;-92
2021/01/19 08:41:03;;;;;;;5.32;3.88;;;;;;;4.47;100.00;100055.84;5048110;28;20045;-92
2021/01/19 08:43:30;;;;;;;7.68;3.40;;;;;;;4.48;100.00;100056.69;5029236;28;20086;-92
2021/01/19 08:46:13;;;;;;;5.47;3.47;;;;;;;4.50;100.00;100047.59;5029740;28;20537;-92
2021/01/19 08:48:39;;;;;;;5.55;3.10;;;;;;;4.50;100.00;100025.50;5044821;28;20044;-93
2021/01/19 08:51:04;;;;;;;4.80;3.40;;;;;;;4.52;100.00;100040.34;5012498;28;20357;-91
2021/01/19 08:53:32;;;;;;;5.63;4.00;;;;;;;4.53;100.00;100035.84;5026874;28;20051;-92
2021/01/19 08:55:57;;;;;;;4.75;3.65;;;;;;;4.53;100.00;100034.03;5047028;28;20161;-91
2021/01/19 08:58:23;;;;;;;6.10;4.10;;;;;;;4.53;100.00;100031.38;5009975;28;20103;-92
2021/01/19 09:00:51;;;;;;;6.70;4.20;;;;;;;4.54;100.00;100018.91;5030773;28;20069;-91
2021/01/19 09:03:20;;;;;;;6.93;3.33;;;;;;;4.55;100.00;100001.19;5033417;28;20552;-92
2021/01/19 09:05:46;;;;;;;5.65;3.88;;;;;;;4.55;100.00;100007.31;5027964;28;20045;-92
2021/01/19 09:08:11;;;;;;;7.50;4.57;;;;;;;4.56;100.00;100006.31;5013659;28;20041;-92
2021/01/19 09:10:39;;;;;;;8.15;3.95;;;;;;;4.58;100.00;100003.53;5026366;28;20041;-91
2021/01/19 09:13:08;;;;;;;4.85;3.30;;;;;;;4.57;100.00;100005.34;5027662;28;20072;-92
2021/01/19 09:15:38;;;;;;;4.72;3.33;;;;;;;4.59;100.00;99992.75;5030578;28;20048;-92
2021/01/19 09:18:05;;;;;;;5.07;3.33;;;;;;;4.60;100.00;99999.72;5028419;28;20490;-90
2021/01/19 09:20:30;;;;;;;7.13;3.45;;;;;;;4.63;100.00;99994.16;5008261;28;20049;-92
2021/01/19 09:23:08;;;;;;;4.47;3.33;;;;;;;4.65;100.00;99992.16;5010461;28;20120;-91
2021/01/19 09:25:33;;;;;;;5.65;3.60;;;;;;;4.66;100.00;99996.50;5030606;28;20038;-92
2021/01/19 09:28:05;;;;;;;5.18;3.80;;;;;;;4.66;100.00;99977.91;5024392;28;20064;-92
2021/01/19 09:30:35;;;;;;;6.53;3.40;;;;;;;4.68;100.00;99985.72;5028999;28;20041;-92
2021/01/19 09:33:04;;;;;;;;;;;;;;;4.71;100.00;99969.47;5033021;28;20041;-92
2021/01/19 09:35:29;;;;;;;5.47;3.28;;;;;;;4.66;100.00;99980.56;5044272;28;19913;-92
2021/01/19 09:37:54;;;;;;;7.20;3.58;;;;;;;4.69;100.00;99961.66;5027403;28;20398;-92
2021/01/19 09:40:35;;;;;;;7.85;3.20;;;;;;;4.73;100.00;99967.53;5029249;28;20048;-92
2021/01/19 09:43:06;;;;;;;5.82;3.72;;;;;;;4.77;100.00;99978.69;5013672;28;20049;-91
2021/01/19 09:45:35;;;;;;;5.28;2.95;;;;;;;4.79;100.00;99982.88;5033181;28;20037;-91
2021/01/19 09:48:02;;;;;;;4.88;3.28;;;;;;;4.82;100.00;99971.13;5028321;28;20136;-90
2021/01/19 09:50:28;;;;;;;6.60;3.50;;;;;;;4.85;100.00;99966.34;5027912;28;20095;-91
2021/01/19 09:52:54;;;;;;;5.53;2.90;;;;;;;4.88;100.00;99957.25;5027785;28;20050;-93
2021/01/19 09:55:22;;;;;;;5.72;3.30;;;;;;;4.90;100.00;99972.06;5030620;28;20044;-92
2021/01/19 09:57:58;;;;;;;5.20;3.38;;;;;;;4.92;100.00;99940.00;5026119;28;20038;-92
2021/01/19 10:00:27;;;;;;;5.85;3.00;;;;;;;4.93;100.00;99960.28;5017852;28;20033;-92
2021/01/19 10:02:53;;;;;;;6.53;2.90;;;;;;;4.96;100.00;99999.88;5024727;28;20041;-92
2021/01/19 10:05:22;;;;;;;6.68;3.50;;;;;;;4.98;100.00;99963.34;5023573;28;20583;-92
2021/01/19 10:07:48;;;;;;;6.18;3.35;;;;;;;5.01;100.00;99944.44;5027555;28;20436;-93
2021/01/19 10:10:14;;;;;;;5.15;3.30;;;;;;;5.03;100.00;99953.09;5037268;28;20041;-94
2021/01/19 10:12:41;;;;;;;6.30;4.00;;;;;;;5.06;100.00;99984.69;5024927;28;20406;-93
2021/01/19 10:15:08;;;;;;;5.88;4.13;;;;;;;5.08;100.00;99956.13;5044975;28;20124;-92
2021/01/19 10:17:34;;;;;;;7.18;3.95;;;;;;;5.09;100.00;99952.50;5026736;28;20053;-92
2021/01/19 10:20:16;;;;;;;5.38;3.85;;;;;;;5.10;100.00;99959.50;5030374;28;20041;-93
2021/01/19 10:22:44;;;;;;;6.15;4.18;;;;;;;5.11;100.00;99955.84;5024160;28;20507;-93
2021/01/19 10:25:11;;;;;;;7.72;4.90;;;;;;;5.13;100.00;99969.00;5028743;28;20037;-94
2021/01/19 10:27:40;;;;;;;6.22;4.15;;;;;;;5.14;100.00;99946.72;5042440;28;20564;-92
2021/01/19 10:30:07;;;;;;;6.18;4.93;;;;;;;5.17;100.00;99944.59;5030155;28;20456;-93
2021/01/19 10:33:05;;;;;;;8.15;6.13;;;;;;;5.17;100.00;99949.91;5020140;28;20098;-92
2021/01/19 10:35:36;;;;;;;6.32;5.00;;;;;;;5.20;100.00;99941.63;5011672;28;20037;-93
2021/01/19 10:38:06;;;;;;;8.30;5.65;;;;;;;5.20;100.00;99944.28;5028398;28;20029;-91
2021/01/19 10:40:32;;;;;;;6.88;5.47;;;;;;;5.23;100.00;99947.66;5019952;28;20045;-93
2021/01/19 10:43:07;;;;;;;7.40;4.40;;;;;;;5.25;100.00;99962.47;5027449;28;20067;-91
2021/01/19 10:45:33;;;;;;;10.48;7.88;;;;;;;5.26;100.00;99937.53;5032060;28;20103;-92
2021/01/19 10:48:01;;;;;;;10.07;7.80;;;;;;;5.29;100.00;99936.41;5026760;28;20082;-93
2021/01/19 10:50:29;;;;;;;5.80;5.03;;;;;;;5.30;100.00;99943.41;5039928;28;20320;-93
2021/01/19 10:53:03;;;;;;;9.95;7.55;;;;;;;5.33;100.00;99943.13;5010218;28;20505;-92
2021/01/19 10:55:30;;;;;;;8.05;6.38;;;;;;;5.34;100.00;99950.94;5015324;28;20044;-93
2021/01/19 10:57:57;;;;;;;7.65;5.55;;;;;;;5.37;100.00;99934.66;5042442;28;20033;-93
2021/01/19 11:00:24;;;;;;;8.32;6.43;;;;;;;5.42;100.00;99940.38;5024568;28;20049;-93
2021/01/19 11:02:50;;;;;;;9.05;6.95;;;;;;;5.44;100.00;99942.88;5036393;28;20489;-93
2021/01/19 11:05:16;;;;;;;11.48;8.23;;;;;;;5.47;100.00;99912.44;5002624;28;20033;-92
2021/01/19 11:07:45;;;;;;;8.73;6.60;;;;;;;5.50;100.00;99931.63;5016607;28;20030;-92
2021/01/19 11:10:13;;;;;;;7.80;6.38;;;;;;;5.53;100.00;99923.34;5027466;28;20045;-93
2021/01/19 11:12:40;;;;;;;11.25;8.18;;;;;;;5.55;100.00;99945.31;5021594;28;20033;-93
2021/01/19 11:15:07;;;;;;;10.15;8.23;;;;;;;5.58;100.00;99945.03;5017600;28;20064;-94
2021/01/19 11:17:33;;;;;;;10.52;7.88;;;;;;;5.65;100.00;99942.56;5018268;28;20139;-94
2021/01/19 11:19:58;;;;;;;12.18;9.70;;;;;;;5.70;100.00;99939.44;5030508;28;20439;-93
2021/01/19 11:22:24;;;;;;;11.80;8.88;;;;;;;5.74;100.00;99924.84;5019464;28;20433;-93
2021/01/19 11:24:49;;;;;;;12.07;9.45;;;;;;;5.81;100.00;99928.53;5035985;28;20041;-93
2021/01/19 11:27:17;;;;;;;10.25;8.90;;;;;;;5.86;100.00;99928.94;5020357;28;20399;-92
2021/01/19 11:29:42;;;;;;;11.50;9.30;;;;;;;5.89;100.00;99939.25;5024981;28;20112;-94
2021/01/19 11:32:08;;;;;;;11.25;8.20;;;;;;;5.92;100.00;99928.31;5029254;28;20038;-94
2021/01/19 11:34:33;;;;;;;10.90;8.65;;;;;;;5.96;100.00;99945.69;5027121;28;20042;-92
2021/01/19 11:36:59;;;;;;;13.55;10.02;;;;;;;5.99;100.00;99940.06;5028769;28;20044;-92
2021/01/19 11:39:24;;;;;;;11.20;9.38;;;;;;;6.04;100.00;99943.09;5013344;28;20046;-93
2021/01/19 11:41:56;;;;;;;12.77;9.57;;;;;;;6.09;100.00;99935.44;5030581;28;20048;-93
2021/01/19 11:44:22;;;;;;;9.75;7.35;;;;;;;6.17;100.00;99941.84;5045438;28;20045;-93
2021/01/19 11:46:48;;;;;;;12.07;8.95;;;;;;;6.18;100.00;99932.84;5029766;28;20065;-92
2021/01/19 11:49:14;;;;;;;9.40;7.13;;;;;;;6.25;100.00;99956.03;5044812;28;20060;-92
2021/01/19 11:51:40;;;;;;;9.75;8.00;;;;;;;6.28;100.00;99929.09;5045532;28;20083;-93
2021/01/19 11:54:09;;;;;;;10.25;6.90;;;;;;;6.32;100.00;99934.94;5028811;28;20041;-94
2021/01/19 11:56:39;;;;;;;10.88;7.55;;;;;;;6.36;100.00;99930.97;5035259;28;20421;-94
2021/01/19 11:59:06;;;;;;;11.93;7.68;;;;;;;6.38;100.00;99923.63;5045408;28;20056;-92